sensor_id;sensor_type;location;lat;lon;timestamp;P1;durP1;ratioP1;P2;durP2;ratioP2
3050;SDS011;1535;51.098;6.414;2022-12-10T00:01:04;40.47;;;28.83;;
3050;SDS011;1535;51.098;6.414;2022-12-10T00:03:32;40.07;;;28.07;;
3050;SDS011;1535;51.098;6.414;2022-12-10T00:06:00;44.70;;;30.80;;
3050;SDS011;1535;51.098;6.414;2022-12-10T00:08:29;53.17;;;28.83;;
3050;SDS011;1535;51.098;6.414;2022-12-10T00:10:56;52.10;;;31.63;;
3050;SDS011;1535;51.098;6.414;2022-12-10T00:13:23;47.40;;;30.17;;
3050;SDS011;1535;51.098;6.414;2022-12-10T00:15:51;44.67;;;31.37;;
3050;SDS011;1535;51.098;6.414;2022-12-10T00:18:17;53.73;;;29.57;;
3050;SDS011;1535;51.098;6.414;2022-12-10T00:20:44;51.07;;;27.97;;
3050;SDS011;1535;51.098;6.414;2022-12-10T00:23:11;41.70;;;28.03;;
3050;SDS011;1535;51.098;6.414;2022-12-10T00:25:39;42.73;;;28.87;;
3050;SDS011;1535;51.098;6.414;2022-12-10T00:28:06;47.37;;;29.03;;
3050;SDS011;1535;51.098;6.414;2022-12-10T00:30:33;43.43;;;29.10;;
3050;SDS011;1535;51.098;6.414;2022-12-10T00:33:00;40.50;;;29.07;;
3050;SDS011;1535;51.098;6.414;2022-12-10T00:35:28;54.63;;;30.60;;
3050;SDS011;1535;51.098;6.414;2022-12-10T00:37:55;53.03;;;31.37;;
3050;SDS011;1535;51.098;6.414;2022-12-10T00:40:21;49.63;;;31.23;;
3050;SDS011;1535;51.098;6.414;2022-12-10T00:42:50;51.23;;;30.73;;
3050;SDS011;1535;51.098;6.414;2022-12-10T00:45:17;48.10;;;29.63;;
3050;SDS011;1535;51.098;6.414;2022-12-10T00:47:44;47.30;;;29.13;;
3050;SDS011;1535;51.098;6.414;2022-12-10T00:50:12;41.90;;;28.80;;
3050;SDS011;1535;51.098;6.414;2022-12-10T00:52:53;36.10;;;26.37;;
3050;SDS011;1535;51.098;6.414;2022-12-10T00:55:20;44.27;;;27.67;;
3050;SDS011;1535;51.098;6.414;2022-12-10T00:57:47;58.13;;;29.67;;
3050;SDS011;1535;51.098;6.414;2022-12-10T01:00:15;49.23;;;27.80;;
3050;SDS011;1535;51.098;6.414;2022-12-10T01:02:42;42.57;;;26.93;;
3050;SDS011;1535;51.098;6.414;2022-12-10T01:05:10;44.00;;;27.80;;
3050;SDS011;1535;51.098;6.414;2022-12-10T01:07:37;42.90;;;28.60;;
3050;SDS011;1535;51.098;6.414;2022-12-10T01:10:04;53.93;;;29.07;;
3050;SDS011;1535;51.098;6.414;2022-12-10T01:12:31;48.50;;;27.37;;
3050;SDS011;1535;51.098;6.414;2022-12-10T01:14:59;53.10;;;30.23;;
3050;SDS011;1535;51.098;6.414;2022-12-10T01:17:28;43.60;;;29.67;;
3050;SDS011;1535;51.098;6.414;2022-12-10T01:19:55;57.50;;;32.83;;
3050;SDS011;1535;51.098;6.414;2022-12-10T01:22:22;68.87;;;33.33;;
3050;SDS011;1535;51.098;6.414;2022-12-10T01:24:48;55.57;;;30.70;;
3050;SDS011;1535;51.098;6.414;2022-12-10T01:27:18;52.63;;;30.30;;
3050;SDS011;1535;51.098;6.414;2022-12-10T01:29:44;46.57;;;29.27;;
3050;SDS011;1535;51.098;6.414;2022-12-10T01:32:11;52.70;;;31.40;;
3050;SDS011;1535;51.098;6.414;2022-12-10T01:34:39;51.77;;;31.47;;
3050;SDS011;1535;51.098;6.414;2022-12-10T01:37:06;51.80;;;32.77;;
3050;SDS011;1535;51.098;6.414;2022-12-10T01:39:33;48.60;;;31.47;;
3050;SDS011;1535;51.098;6.414;2022-12-10T01:41:59;47.40;;;28.07;;
3050;SDS011;1535;51.098;6.414;2022-12-10T01:47:33;50.60;;;30.00;;
3050;SDS011;1535;51.098;6.414;2022-12-10T01:50:02;56.63;;;30.90;;
3050;SDS011;1535;51.098;6.414;2022-12-10T01:52:30;53.87;;;30.90;;
3050;SDS011;1535;51.098;6.414;2022-12-10T01:54:57;59.47;;;32.20;;
3050;SDS011;1535;51.098;6.414;2022-12-10T01:57:25;54.73;;;30.23;;
3050;SDS011;1535;51.098;6.414;2022-12-10T01:59:53;49.30;;;29.80;;
3050;SDS011;1535;51.098;6.414;2022-12-10T02:02:26;54.07;;;29.47;;
3050;SDS011;1535;51.098;6.414;2022-12-10T02:05:07;45.90;;;29.93;;
3050;SDS011;1535;51.098;6.414;2022-12-10T02:07:45;52.57;;;29.73;;
3050;SDS011;1535;51.098;6.414;2022-12-10T02:10:23;46.77;;;29.37;;
3050;SDS011;1535;51.098;6.414;2022-12-10T02:12:57;54.27;;;29.57;;
3050;SDS011;1535;51.098;6.414;2022-12-10T02:15:33;47.83;;;29.33;;
3050;SDS011;1535;51.098;6.414;2022-12-10T02:18:03;49.10;;;29.17;;
3050;SDS011;1535;51.098;6.414;2022-12-10T02:20:35;45.60;;;29.37;;
3050;SDS011;1535;51.098;6.414;2022-12-10T02:23:06;46.50;;;30.23;;
3050;SDS011;1535;51.098;6.414;2022-12-10T02:25:37;57.57;;;30.00;;
3050;SDS011;1535;51.098;6.414;2022-12-10T02:28:13;50.73;;;29.77;;
3050;SDS011;1535;51.098;6.414;2022-12-10T02:30:49;57.37;;;29.80;;
3050;SDS011;1535;51.098;6.414;2022-12-10T02:33:18;48.33;;;29.27;;
3050;SDS011;1535;51.098;6.414;2022-12-10T02:35:46;51.50;;;31.80;;
3050;SDS011;1535;51.098;6.414;2022-12-10T02:38:16;55.33;;;32.30;;
3050;SDS011;1535;51.098;6.414;2022-12-10T02:40:48;57.07;;;31.00;;
3050;SDS011;1535;51.098;6.414;2022-12-10T02:43:18;48.97;;;30.30;;
3050;SDS011;1535;51.098;6.414;2022-12-10T02:45:48;54.50;;;33.37;;
3050;SDS011;1535;51.098;6.414;2022-12-10T02:48:17;57.70;;;34.97;;
3050;SDS011;1535;51.098;6.414;2022-12-10T02:50:46;79.70;;;35.90;;
3050;SDS011;1535;51.098;6.414;2022-12-10T02:53:13;130.70;;;33.70;;
3050;SDS011;1535;51.098;6.414;2022-12-10T02:55:44;110.37;;;34.43;;
3050;SDS011;1535;51.098;6.414;2022-12-10T02:58:22;99.50;;;32.30;;
3050;SDS011;1535;51.098;6.414;2022-12-10T03:01:00;197.90;;;33.57;;
3050;SDS011;1535;51.098;6.414;2022-12-10T03:03:33;120.93;;;34.03;;
3050;SDS011;1535;51.098;6.414;2022-12-10T03:06:08;126.63;;;37.80;;
3050;SDS011;1535;51.098;6.414;2022-12-10T03:08:40;123.80;;;34.60;;
3050;SDS011;1535;51.098;6.414;2022-12-10T03:11:13;129.97;;;34.50;;
3050;SDS011;1535;51.098;6.414;2022-12-10T03:13:43;102.97;;;33.73;;
3050;SDS011;1535;51.098;6.414;2022-12-10T03:16:18;145.33;;;37.33;;
3050;SDS011;1535;51.098;6.414;2022-12-10T03:18:49;178.73;;;32.97;;
3050;SDS011;1535;51.098;6.414;2022-12-10T03:21:19;157.57;;;35.30;;
3050;SDS011;1535;51.098;6.414;2022-12-10T03:23:46;153.23;;;37.07;;
3050;SDS011;1535;51.098;6.414;2022-12-10T03:26:16;149.87;;;39.13;;
3050;SDS011;1535;51.098;6.414;2022-12-10T03:28:46;100.20;;;34.80;;
3050;SDS011;1535;51.098;6.414;2022-12-10T03:31:16;93.83;;;38.97;;
3050;SDS011;1535;51.098;6.414;2022-12-10T03:33:45;161.07;;;34.93;;
3050;SDS011;1535;51.098;6.414;2022-12-10T03:36:14;137.93;;;36.43;;
3050;SDS011;1535;51.098;6.414;2022-12-10T03:38:42;181.60;;;35.53;;
3050;SDS011;1535;51.098;6.414;2022-12-10T03:41:09;160.93;;;36.97;;
3050;SDS011;1535;51.098;6.414;2022-12-10T03:43:43;231.87;;;39.13;;
3050;SDS011;1535;51.098;6.414;2022-12-10T03:46:16;167.53;;;35.93;;
3050;SDS011;1535;51.098;6.414;2022-12-10T03:48:44;194.03;;;36.90;;
3050;SDS011;1535;51.098;6.414;2022-12-10T03:51:11;159.53;;;35.17;;
3050;SDS011;1535;51.098;6.414;2022-12-10T03:53:38;115.53;;;36.27;;
3050;SDS011;1535;51.098;6.414;2022-12-10T03:56:05;109.87;;;36.60;;
3050;SDS011;1535;51.098;6.414;2022-12-10T03:58:31;98.97;;;36.10;;
3050;SDS011;1535;51.098;6.414;2022-12-10T04:00:58;145.87;;;38.27;;
3050;SDS011;1535;51.098;6.414;2022-12-10T04:03:25;135.30;;;37.73;;
3050;SDS011;1535;51.098;6.414;2022-12-10T04:05:53;140.77;;;38.10;;
3050;SDS011;1535;51.098;6.414;2022-12-10T04:08:20;121.63;;;40.17;;
3050;SDS011;1535;51.098;6.414;2022-12-10T04:10:46;123.53;;;40.30;;
3050;SDS011;1535;51.098;6.414;2022-12-10T04:13:13;125.60;;;39.03;;
3050;SDS011;1535;51.098;6.414;2022-12-10T04:15:58;205.63;;;40.87;;
3050;SDS011;1535;51.098;6.414;2022-12-10T04:18:42;113.03;;;37.70;;
3050;SDS011;1535;51.098;6.414;2022-12-10T04:21:10;109.77;;;38.17;;
3050;SDS011;1535;51.098;6.414;2022-12-10T04:23:54;90.33;;;39.57;;
3050;SDS011;1535;51.098;6.414;2022-12-10T04:26:46;87.60;;;42.70;;
3050;SDS011;1535;51.098;6.414;2022-12-10T04:29:23;97.77;;;41.43;;
3050;SDS011;1535;51.098;6.414;2022-12-10T04:31:51;92.60;;;41.77;;
3050;SDS011;1535;51.098;6.414;2022-12-10T04:34:18;94.77;;;39.37;;
3050;SDS011;1535;51.098;6.414;2022-12-10T04:36:46;99.87;;;39.23;;
3050;SDS011;1535;51.098;6.414;2022-12-10T04:39:14;99.47;;;39.40;;
3050;SDS011;1535;51.098;6.414;2022-12-10T04:41:41;109.07;;;42.20;;
3050;SDS011;1535;51.098;6.414;2022-12-10T04:44:10;103.70;;;41.57;;
3050;SDS011;1535;51.098;6.414;2022-12-10T04:46:37;87.90;;;38.80;;
3050;SDS011;1535;51.098;6.414;2022-12-10T04:49:04;93.40;;;39.70;;
3050;SDS011;1535;51.098;6.414;2022-12-10T04:51:32;96.93;;;44.70;;
3050;SDS011;1535;51.098;6.414;2022-12-10T04:54:01;98.07;;;43.80;;
3050;SDS011;1535;51.098;6.414;2022-12-10T04:56:28;85.93;;;37.90;;
3050;SDS011;1535;51.098;6.414;2022-12-10T04:58:55;107.97;;;39.70;;
3050;SDS011;1535;51.098;6.414;2022-12-10T05:01:22;88.83;;;40.87;;
3050;SDS011;1535;51.098;6.414;2022-12-10T05:03:50;90.60;;;38.40;;
3050;SDS011;1535;51.098;6.414;2022-12-10T05:06:17;143.83;;;38.00;;
3050;SDS011;1535;51.098;6.414;2022-12-10T05:08:45;147.53;;;42.60;;
3050;SDS011;1535;51.098;6.414;2022-12-10T05:11:15;99.00;;;38.97;;
3050;SDS011;1535;51.098;6.414;2022-12-10T05:13:44;115.23;;;38.80;;
3050;SDS011;1535;51.098;6.414;2022-12-10T05:16:13;121.07;;;41.60;;
3050;SDS011;1535;51.098;6.414;2022-12-10T05:18:41;135.87;;;42.50;;
3050;SDS011;1535;51.098;6.414;2022-12-10T05:21:09;175.47;;;43.47;;
3050;SDS011;1535;51.098;6.414;2022-12-10T05:23:38;130.87;;;39.93;;
3050;SDS011;1535;51.098;6.414;2022-12-10T05:26:08;121.80;;;40.87;;
3050;SDS011;1535;51.098;6.414;2022-12-10T05:28:37;122.47;;;38.40;;
3050;SDS011;1535;51.098;6.414;2022-12-10T05:31:05;109.13;;;37.93;;
3050;SDS011;1535;51.098;6.414;2022-12-10T05:33:38;114.87;;;37.17;;
3050;SDS011;1535;51.098;6.414;2022-12-10T05:36:05;119.17;;;39.73;;
3050;SDS011;1535;51.098;6.414;2022-12-10T05:38:33;137.43;;;39.47;;
3050;SDS011;1535;51.098;6.414;2022-12-10T05:41:00;89.50;;;36.90;;
3050;SDS011;1535;51.098;6.414;2022-12-10T05:43:28;111.70;;;39.37;;
3050;SDS011;1535;51.098;6.414;2022-12-10T05:45:59;96.13;;;38.13;;
3050;SDS011;1535;51.098;6.414;2022-12-10T05:48:27;122.10;;;37.00;;
3050;SDS011;1535;51.098;6.414;2022-12-10T05:50:54;176.73;;;39.00;;
3050;SDS011;1535;51.098;6.414;2022-12-10T05:53:20;99.30;;;37.33;;
3050;SDS011;1535;51.098;6.414;2022-12-10T05:55:49;126.20;;;39.70;;
3050;SDS011;1535;51.098;6.414;2022-12-10T05:58:15;134.90;;;37.33;;
3050;SDS011;1535;51.098;6.414;2022-12-10T06:00:42;140.00;;;40.87;;
3050;SDS011;1535;51.098;6.414;2022-12-10T06:03:11;113.60;;;39.10;;
3050;SDS011;1535;51.098;6.414;2022-12-10T06:05:39;147.87;;;39.73;;
3050;SDS011;1535;51.098;6.414;2022-12-10T06:08:07;81.13;;;36.30;;
3050;SDS011;1535;51.098;6.414;2022-12-10T06:10:34;115.57;;;38.63;;
3050;SDS011;1535;51.098;6.414;2022-12-10T06:13:01;100.93;;;38.97;;
3050;SDS011;1535;51.098;6.414;2022-12-10T06:15:28;90.07;;;38.73;;
3050;SDS011;1535;51.098;6.414;2022-12-10T06:17:55;96.03;;;39.33;;
3050;SDS011;1535;51.098;6.414;2022-12-10T06:20:24;91.00;;;38.47;;
3050;SDS011;1535;51.098;6.414;2022-12-10T06:22:51;98.50;;;39.53;;
3050;SDS011;1535;51.098;6.414;2022-12-10T06:25:18;82.80;;;35.50;;
3050;SDS011;1535;51.098;6.414;2022-12-10T06:27:45;105.57;;;38.77;;
3050;SDS011;1535;51.098;6.414;2022-12-10T06:30:12;84.20;;;34.73;;
3050;SDS011;1535;51.098;6.414;2022-12-10T06:32:39;108.70;;;40.33;;
3050;SDS011;1535;51.098;6.414;2022-12-10T06:35:08;103.13;;;39.33;;
3050;SDS011;1535;51.098;6.414;2022-12-10T06:37:36;85.43;;;36.33;;
3050;SDS011;1535;51.098;6.414;2022-12-10T06:40:04;82.03;;;37.20;;
3050;SDS011;1535;51.098;6.414;2022-12-10T06:42:31;95.17;;;38.60;;
3050;SDS011;1535;51.098;6.414;2022-12-10T06:44:58;90.37;;;39.00;;
3050;SDS011;1535;51.098;6.414;2022-12-10T06:47:25;88.73;;;39.37;;
3050;SDS011;1535;51.098;6.414;2022-12-10T06:49:52;84.13;;;38.83;;
3050;SDS011;1535;51.098;6.414;2022-12-10T06:52:19;93.10;;;38.57;;
3050;SDS011;1535;51.098;6.414;2022-12-10T06:54:48;89.20;;;36.83;;
3050;SDS011;1535;51.098;6.414;2022-12-10T06:57:15;99.57;;;40.90;;
3050;SDS011;1535;51.098;6.414;2022-12-10T06:59:42;93.50;;;38.37;;
3050;SDS011;1535;51.098;6.414;2022-12-10T07:02:09;75.37;;;38.47;;
3050;SDS011;1535;51.098;6.414;2022-12-10T07:04:36;98.70;;;38.73;;
3050;SDS011;1535;51.098;6.414;2022-12-10T07:07:03;91.03;;;39.90;;
3050;SDS011;1535;51.098;6.414;2022-12-10T07:09:30;85.83;;;37.73;;
3050;SDS011;1535;51.098;6.414;2022-12-10T07:11:59;63.73;;;35.17;;
3050;SDS011;1535;51.098;6.414;2022-12-10T07:14:26;65.03;;;36.00;;
3050;SDS011;1535;51.098;6.414;2022-12-10T07:16:53;67.57;;;35.07;;
3050;SDS011;1535;51.098;6.414;2022-12-10T07:19:20;76.97;;;38.07;;
3050;SDS011;1535;51.098;6.414;2022-12-10T07:21:46;71.60;;;34.07;;
3050;SDS011;1535;51.098;6.414;2022-12-10T07:24:14;87.47;;;37.57;;
3050;SDS011;1535;51.098;6.414;2022-12-10T07:26:43;75.63;;;35.20;;
3050;SDS011;1535;51.098;6.414;2022-12-10T07:29:13;82.20;;;38.97;;
3050;SDS011;1535;51.098;6.414;2022-12-10T07:31:41;73.87;;;40.03;;
3050;SDS011;1535;51.098;6.414;2022-12-10T07:34:08;70.40;;;37.30;;
3050;SDS011;1535;51.098;6.414;2022-12-10T07:36:36;74.40;;;36.47;;
3050;SDS011;1535;51.098;6.414;2022-12-10T07:39:04;63.17;;;36.23;;
3050;SDS011;1535;51.098;6.414;2022-12-10T07:41:32;76.90;;;37.90;;
3050;SDS011;1535;51.098;6.414;2022-12-10T07:44:00;64.37;;;36.00;;
3050;SDS011;1535;51.098;6.414;2022-12-10T07:46:29;67.00;;;36.53;;
3050;SDS011;1535;51.098;6.414;2022-12-10T07:48:59;77.80;;;39.53;;
3050;SDS011;1535;51.098;6.414;2022-12-10T07:51:26;76.23;;;38.40;;
3050;SDS011;1535;51.098;6.414;2022-12-10T07:53:54;73.97;;;39.10;;
3050;SDS011;1535;51.098;6.414;2022-12-10T07:56:21;82.53;;;36.80;;
3050;SDS011;1535;51.098;6.414;2022-12-10T07:58:49;73.27;;;39.83;;
3050;SDS011;1535;51.098;6.414;2022-12-10T08:01:17;91.40;;;38.37;;
3050;SDS011;1535;51.098;6.414;2022-12-10T08:03:48;80.07;;;38.20;;
3050;SDS011;1535;51.098;6.414;2022-12-10T08:06:16;79.53;;;37.70;;
3050;SDS011;1535;51.098;6.414;2022-12-10T08:08:44;79.53;;;39.23;;
3050;SDS011;1535;51.098;6.414;2022-12-10T08:11:12;73.70;;;39.00;;
3050;SDS011;1535;51.098;6.414;2022-12-10T08:13:43;75.67;;;38.77;;
3050;SDS011;1535;51.098;6.414;2022-12-10T08:16:11;73.13;;;36.70;;
3050;SDS011;1535;51.098;6.414;2022-12-10T08:18:40;77.83;;;39.40;;
3050;SDS011;1535;51.098;6.414;2022-12-10T08:21:09;78.00;;;39.73;;
3050;SDS011;1535;51.098;6.414;2022-12-10T08:23:37;76.23;;;38.10;;
3050;SDS011;1535;51.098;6.414;2022-12-10T08:26:04;70.63;;;36.63;;
3050;SDS011;1535;51.098;6.414;2022-12-10T08:28:32;72.27;;;39.93;;
3050;SDS011;1535;51.098;6.414;2022-12-10T08:31:00;71.33;;;38.50;;
3050;SDS011;1535;51.098;6.414;2022-12-10T08:33:27;80.87;;;40.27;;
3050;SDS011;1535;51.098;6.414;2022-12-10T08:35:56;85.10;;;41.27;;
3050;SDS011;1535;51.098;6.414;2022-12-10T08:38:26;71.13;;;37.33;;
3050;SDS011;1535;51.098;6.414;2022-12-10T08:40:53;74.17;;;38.50;;
3050;SDS011;1535;51.098;6.414;2022-12-10T08:43:20;66.67;;;37.97;;
3050;SDS011;1535;51.098;6.414;2022-12-10T08:45:48;79.73;;;39.80;;
3050;SDS011;1535;51.098;6.414;2022-12-10T08:48:15;69.93;;;38.07;;
3050;SDS011;1535;51.098;6.414;2022-12-10T08:50:41;60.03;;;39.00;;
3050;SDS011;1535;51.098;6.414;2022-12-10T08:53:08;61.03;;;38.57;;
3050;SDS011;1535;51.098;6.414;2022-12-10T08:55:38;66.20;;;36.43;;
3050;SDS011;1535;51.098;6.414;2022-12-10T08:58:05;69.57;;;38.57;;
3050;SDS011;1535;51.098;6.414;2022-12-10T09:00:33;80.83;;;40.07;;
3050;SDS011;1535;51.098;6.414;2022-12-10T09:03:00;78.87;;;41.17;;
3050;SDS011;1535;51.098;6.414;2022-12-10T09:05:26;72.30;;;39.30;;
3050;SDS011;1535;51.098;6.414;2022-12-10T09:07:53;69.87;;;36.60;;
3050;SDS011;1535;51.098;6.414;2022-12-10T09:10:21;63.40;;;38.63;;
3050;SDS011;1535;51.098;6.414;2022-12-10T09:12:49;69.17;;;35.63;;
3050;SDS011;1535;51.098;6.414;2022-12-10T09:15:15;62.83;;;37.00;;
3050;SDS011;1535;51.098;6.414;2022-12-10T09:17:43;76.80;;;39.37;;
3050;SDS011;1535;51.098;6.414;2022-12-10T09:20:10;56.70;;;36.60;;
3050;SDS011;1535;51.098;6.414;2022-12-10T09:22:38;64.60;;;39.07;;
3050;SDS011;1535;51.098;6.414;2022-12-10T09:25:05;67.73;;;39.33;;
3050;SDS011;1535;51.098;6.414;2022-12-10T09:27:34;67.37;;;42.20;;
3050;SDS011;1535;51.098;6.414;2022-12-10T09:30:04;72.43;;;39.87;;
3050;SDS011;1535;51.098;6.414;2022-12-10T09:32:31;56.43;;;39.07;;
3050;SDS011;1535;51.098;6.414;2022-12-10T09:34:58;59.10;;;34.10;;
3050;SDS011;1535;51.098;6.414;2022-12-10T09:37:25;50.47;;;34.20;;
3050;SDS011;1535;51.098;6.414;2022-12-10T09:39:51;61.50;;;39.83;;
3050;SDS011;1535;51.098;6.414;2022-12-10T09:42:22;58.57;;;38.97;;
3050;SDS011;1535;51.098;6.414;2022-12-10T09:44:58;57.57;;;36.93;;
3050;SDS011;1535;51.098;6.414;2022-12-10T09:47:36;70.00;;;38.80;;
3050;SDS011;1535;51.098;6.414;2022-12-10T09:50:12;62.27;;;41.50;;
3050;SDS011;1535;51.098;6.414;2022-12-10T09:52:45;67.90;;;40.60;;
3050;SDS011;1535;51.098;6.414;2022-12-10T09:55:15;73.90;;;40.33;;
3050;SDS011;1535;51.098;6.414;2022-12-10T09:57:45;55.27;;;31.50;;
3050;SDS011;1535;51.098;6.414;2022-12-10T10:00:18;74.90;;;44.30;;
3050;SDS011;1535;51.098;6.414;2022-12-10T10:02:48;65.90;;;42.40;;
3050;SDS011;1535;51.098;6.414;2022-12-10T10:05:21;69.83;;;39.70;;
3050;SDS011;1535;51.098;6.414;2022-12-10T10:07:51;57.47;;;34.87;;
3050;SDS011;1535;51.098;6.414;2022-12-10T10:10:22;57.83;;;34.90;;
3050;SDS011;1535;51.098;6.414;2022-12-10T10:12:52;51.47;;;33.00;;
3050;SDS011;1535;51.098;6.414;2022-12-10T10:15:24;61.00;;;34.87;;
3050;SDS011;1535;51.098;6.414;2022-12-10T10:17:57;70.60;;;35.90;;
3050;SDS011;1535;51.098;6.414;2022-12-10T10:20:27;56.30;;;36.20;;
3050;SDS011;1535;51.098;6.414;2022-12-10T10:22:56;60.43;;;34.90;;
3050;SDS011;1535;51.098;6.414;2022-12-10T10:25:24;56.80;;;35.83;;
3050;SDS011;1535;51.098;6.414;2022-12-10T10:27:52;54.23;;;34.43;;
3050;SDS011;1535;51.098;6.414;2022-12-10T10:30:19;53.40;;;34.70;;
3050;SDS011;1535;51.098;6.414;2022-12-10T10:32:48;47.53;;;32.30;;
3050;SDS011;1535;51.098;6.414;2022-12-10T10:35:25;52.33;;;33.50;;
3050;SDS011;1535;51.098;6.414;2022-12-10T10:37:58;47.70;;;32.50;;
3050;SDS011;1535;51.098;6.414;2022-12-10T10:40:28;48.50;;;34.30;;
3050;SDS011;1535;51.098;6.414;2022-12-10T10:42:58;47.90;;;32.57;;
3050;SDS011;1535;51.098;6.414;2022-12-10T10:45:30;48.90;;;33.07;;
3050;SDS011;1535;51.098;6.414;2022-12-10T10:48:06;49.17;;;33.37;;
3050;SDS011;1535;51.098;6.414;2022-12-10T10:50:38;55.03;;;34.63;;
3050;SDS011;1535;51.098;6.414;2022-12-10T10:53:20;64.83;;;35.67;;
3050;SDS011;1535;51.098;6.414;2022-12-10T10:55:52;55.70;;;33.80;;
3050;SDS011;1535;51.098;6.414;2022-12-10T10:58:22;54.30;;;32.63;;
3050;SDS011;1535;51.098;6.414;2022-12-10T11:00:54;51.57;;;31.23;;
3050;SDS011;1535;51.098;6.414;2022-12-10T11:03:23;44.00;;;32.23;;
3050;SDS011;1535;51.098;6.414;2022-12-10T11:05:51;41.03;;;28.37;;
3050;SDS011;1535;51.098;6.414;2022-12-10T11:08:19;52.30;;;34.10;;
3050;SDS011;1535;51.098;6.414;2022-12-10T11:10:47;53.03;;;35.50;;
3050;SDS011;1535;51.098;6.414;2022-12-10T11:13:19;52.30;;;31.90;;
3050;SDS011;1535;51.098;6.414;2022-12-10T11:15:53;55.37;;;36.07;;
3050;SDS011;1535;51.098;6.414;2022-12-10T11:18:23;61.27;;;34.93;;
3050;SDS011;1535;51.098;6.414;2022-12-10T11:21:04;59.97;;;35.60;;
3050;SDS011;1535;51.098;6.414;2022-12-10T11:23:36;60.67;;;37.00;;
3050;SDS011;1535;51.098;6.414;2022-12-10T11:26:11;55.47;;;37.77;;
3050;SDS011;1535;51.098;6.414;2022-12-10T11:28:50;68.63;;;38.37;;
3050;SDS011;1535;51.098;6.414;2022-12-10T11:31:29;61.13;;;35.93;;
3050;SDS011;1535;51.098;6.414;2022-12-10T11:34:08;58.40;;;34.10;;
3050;SDS011;1535;51.098;6.414;2022-12-10T11:36:45;62.97;;;35.57;;
3050;SDS011;1535;51.098;6.414;2022-12-10T11:39:30;57.60;;;34.70;;
3050;SDS011;1535;51.098;6.414;2022-12-10T11:42:21;67.87;;;35.87;;
3050;SDS011;1535;51.098;6.414;2022-12-10T11:44:58;60.00;;;36.40;;
3050;SDS011;1535;51.098;6.414;2022-12-10T11:47:36;64.70;;;37.40;;
3050;SDS011;1535;51.098;6.414;2022-12-10T11:50:15;71.60;;;35.80;;
3050;SDS011;1535;51.098;6.414;2022-12-10T11:52:55;56.60;;;33.87;;
3050;SDS011;1535;51.098;6.414;2022-12-10T11:55:36;60.10;;;34.03;;
3050;SDS011;1535;51.098;6.414;2022-12-10T11:58:16;67.30;;;36.10;;
3050;SDS011;1535;51.098;6.414;2022-12-10T12:00:57;60.70;;;32.00;;
3050;SDS011;1535;51.098;6.414;2022-12-10T12:03:40;68.80;;;37.10;;
3050;SDS011;1535;51.098;6.414;2022-12-10T12:06:26;76.43;;;38.33;;
3050;SDS011;1535;51.098;6.414;2022-12-10T12:09:09;58.50;;;32.13;;
3050;SDS011;1535;51.098;6.414;2022-12-10T12:11:47;62.00;;;32.97;;
3050;SDS011;1535;51.098;6.414;2022-12-10T12:14:25;68.03;;;34.40;;
3050;SDS011;1535;51.098;6.414;2022-12-10T12:16:58;73.30;;;35.07;;
3050;SDS011;1535;51.098;6.414;2022-12-10T12:19:31;85.97;;;37.20;;
3050;SDS011;1535;51.098;6.414;2022-12-10T12:22:02;61.07;;;33.47;;
3050;SDS011;1535;51.098;6.414;2022-12-10T12:24:40;67.07;;;32.97;;
3050;SDS011;1535;51.098;6.414;2022-12-10T12:27:12;72.23;;;37.03;;
3050;SDS011;1535;51.098;6.414;2022-12-10T12:29:50;80.50;;;35.97;;
3050;SDS011;1535;51.098;6.414;2022-12-10T12:32:25;72.30;;;35.50;;
3050;SDS011;1535;51.098;6.414;2022-12-10T12:34:56;76.53;;;36.60;;
3050;SDS011;1535;51.098;6.414;2022-12-10T12:37:27;65.07;;;31.10;;
3050;SDS011;1535;51.098;6.414;2022-12-10T12:40:00;75.57;;;33.27;;
3050;SDS011;1535;51.098;6.414;2022-12-10T12:42:36;66.63;;;32.77;;
3050;SDS011;1535;51.098;6.414;2022-12-10T12:45:10;61.97;;;35.33;;
3050;SDS011;1535;51.098;6.414;2022-12-10T12:47:41;62.93;;;33.50;;
3050;SDS011;1535;51.098;6.414;2022-12-10T12:50:20;72.43;;;34.83;;
3050;SDS011;1535;51.098;6.414;2022-12-10T12:52:53;72.67;;;34.00;;
3050;SDS011;1535;51.098;6.414;2022-12-10T12:55:25;83.87;;;37.67;;
3050;SDS011;1535;51.098;6.414;2022-12-10T12:58:01;74.03;;;36.43;;
3050;SDS011;1535;51.098;6.414;2022-12-10T13:00:39;64.70;;;32.47;;
3050;SDS011;1535;51.098;6.414;2022-12-10T13:03:17;75.70;;;36.13;;
3050;SDS011;1535;51.098;6.414;2022-12-10T13:05:50;54.03;;;30.40;;
3050;SDS011;1535;51.098;6.414;2022-12-10T13:11:27;58.53;;;30.17;;
3050;SDS011;1535;51.098;6.414;2022-12-10T13:14:04;59.77;;;32.53;;
3050;SDS011;1535;51.098;6.414;2022-12-10T13:16:47;53.87;;;28.97;;
3050;SDS011;1535;51.098;6.414;2022-12-10T13:19:16;72.27;;;34.27;;
3050;SDS011;1535;51.098;6.414;2022-12-10T13:21:57;62.77;;;30.63;;
3050;SDS011;1535;51.098;6.414;2022-12-10T13:27:18;54.77;;;29.17;;
3050;SDS011;1535;51.098;6.414;2022-12-10T13:29:54;54.00;;;28.37;;
3050;SDS011;1535;51.098;6.414;2022-12-10T13:32:24;60.23;;;29.90;;
3050;SDS011;1535;51.098;6.414;2022-12-10T13:35:16;53.70;;;29.53;;
3050;SDS011;1535;51.098;6.414;2022-12-10T13:37:53;52.67;;;28.60;;
3050;SDS011;1535;51.098;6.414;2022-12-10T13:40:23;62.33;;;32.13;;
3050;SDS011;1535;51.098;6.414;2022-12-10T13:42:57;55.07;;;26.70;;
3050;SDS011;1535;51.098;6.414;2022-12-10T13:45:42;60.30;;;31.67;;
3050;SDS011;1535;51.098;6.414;2022-12-10T13:48:17;49.33;;;29.23;;
3050;SDS011;1535;51.098;6.414;2022-12-10T13:50:52;53.00;;;28.53;;
3050;SDS011;1535;51.098;6.414;2022-12-10T13:53:33;56.50;;;29.40;;
3050;SDS011;1535;51.098;6.414;2022-12-10T13:56:09;52.00;;;29.50;;
3050;SDS011;1535;51.098;6.414;2022-12-10T13:58:46;54.80;;;30.90;;
3050;SDS011;1535;51.098;6.414;2022-12-10T14:01:21;59.00;;;29.37;;
3050;SDS011;1535;51.098;6.414;2022-12-10T14:04:01;57.30;;;31.57;;
3050;SDS011;1535;51.098;6.414;2022-12-10T14:06:54;60.87;;;32.37;;
3050;SDS011;1535;51.098;6.414;2022-12-10T14:09:23;70.40;;;33.67;;
3050;SDS011;1535;51.098;6.414;2022-12-10T14:11:54;66.13;;;33.93;;
3050;SDS011;1535;51.098;6.414;2022-12-10T14:14:25;63.80;;;32.60;;
3050;SDS011;1535;51.098;6.414;2022-12-10T14:16:59;64.90;;;34.90;;
3050;SDS011;1535;51.098;6.414;2022-12-10T14:19:27;63.97;;;31.43;;
3050;SDS011;1535;51.098;6.414;2022-12-10T14:21:54;60.57;;;32.03;;
3050;SDS011;1535;51.098;6.414;2022-12-10T14:24:26;58.23;;;33.37;;
3050;SDS011;1535;51.098;6.414;2022-12-10T14:26:56;64.97;;;36.27;;
3050;SDS011;1535;51.098;6.414;2022-12-10T14:29:26;64.80;;;33.77;;
3050;SDS011;1535;51.098;6.414;2022-12-10T14:31:53;65.50;;;32.10;;
3050;SDS011;1535;51.098;6.414;2022-12-10T14:34:21;69.43;;;33.20;;
3050;SDS011;1535;51.098;6.414;2022-12-10T14:36:50;57.57;;;33.40;;
3050;SDS011;1535;51.098;6.414;2022-12-10T14:39:20;76.57;;;33.40;;
3050;SDS011;1535;51.098;6.414;2022-12-10T14:41:50;66.80;;;33.27;;
3050;SDS011;1535;51.098;6.414;2022-12-10T14:44:19;73.50;;;33.30;;
3050;SDS011;1535;51.098;6.414;2022-12-10T14:46:47;60.77;;;31.30;;
3050;SDS011;1535;51.098;6.414;2022-12-10T14:49:15;59.37;;;32.47;;
3050;SDS011;1535;51.098;6.414;2022-12-10T14:51:45;56.37;;;32.10;;
3050;SDS011;1535;51.098;6.414;2022-12-10T14:54:23;66.77;;;33.60;;
3050;SDS011;1535;51.098;6.414;2022-12-10T14:56:51;61.23;;;32.57;;
3050;SDS011;1535;51.098;6.414;2022-12-10T14:59:20;56.40;;;32.30;;
3050;SDS011;1535;51.098;6.414;2022-12-10T15:01:52;72.20;;;32.53;;
3050;SDS011;1535;51.098;6.414;2022-12-10T15:04:23;66.87;;;31.13;;
3050;SDS011;1535;51.098;6.414;2022-12-10T15:06:56;63.93;;;30.43;;
3050;SDS011;1535;51.098;6.414;2022-12-10T15:09:25;60.33;;;30.80;;
3050;SDS011;1535;51.098;6.414;2022-12-10T15:11:52;59.47;;;29.67;;
3050;SDS011;1535;51.098;6.414;2022-12-10T15:14:20;56.30;;;29.90;;